KLAF/LAF METAR and TAF weather

Enter ICAO airport designator
Station Type Date Time Source
KLAF METAR 2019/04/19 09:54 UTC NOAA

KLAF 190954Z AUTO 35010KT 10SM BKN017 OVC075 04/03 A2965 RMK AO2 SLP041 T00440033


Station Type Date Time Source
KLAF Decoded METAR 2019/04/19 09:54 UTC NOAA

LAFAYETTE PURDUE UNIV AIRPORT , IN, United States (KLAF) 40-25N 86-57W 182M
Apr 19, 2019 - 05:54 AM EDT / 2019.04.19 0954 UTC
Wind: from the N (350 degrees) at 12 MPH (10 KT):0
Visibility: 10 mile(s):0
Sky conditions: overcast
Temperature: 39.9 F (4.4 C)
Dew Point: 37.9 F (3.3 C)
Relative Humidity: 92%
Pressure (altimeter): 29.65 in. Hg (1004 hPa)
ob: KLAF 190954Z AUTO 35010KT 10SM BKN017 OVC075 04/03 A2965 RMK AO2 SLP041 T00440033
cycle: 10

Station Type Date Time Source
KLAF TAF 2019/04/19 06:22 UTC NOAA

TAF KLAF 190520Z 1906/2006 02012G21KT P6SM -RA BKN010 OVC017
FM191500 01016G24KT P6SM VCSH OVC008
FM191800 36018KT P6SM VCSH OVC013
FM192300 01019G27KT P6SM VCSH OVC020
FM200500 01017G25KT P6SM BKN060
AMD LTD TO CLD VIS AND WIND TIL 191300

Example: see airport list